Time;durP1;ratioP1;P1;durP2;ratioP2;P2;SDS_P1;SDS_P2;PMS_P1;PMS_P2;Temp;Humidity;BMP_temperature;BMP_pressure;BME280_temperature;BME280_humidity;BME280_pressure;Samples;Min_cycle;Max_cycle;Signal;HPM_P1;HPM_P2
2022/05/08 00:01:16;;;;;;;10.02;7.50;;;;;;;17.27;56.10;102490.38;5133091;27;20059;-62
2022/05/08 00:03:42;;;;;;;11.30;7.60;;;;;;;17.25;56.25;102491.47;5115713;27;20410;-63
2022/05/08 00:06:11;;;;;;;12.07;8.05;;;;;;;17.24;56.15;102493.31;5116521;28;20043;-63
2022/05/08 00:08:38;;;;;;;11.57;7.97;;;;;;;17.24;56.05;102493.31;5121021;27;20439;-63
2022/05/08 00:11:06;;;;;;;11.02;8.40;;;;;;;17.23;55.99;102497.03;5137181;27;20062;-62
2022/05/08 00:13:35;;;;;;;12.75;8.57;;;;;;;17.25;56.22;102494.19;5136111;27;20039;-62
2022/05/08 00:16:02;;;;;;;13.23;8.68;;;;;;;17.24;55.97;102506.03;5136311;27;20126;-62
2022/05/08 00:18:29;;;;;;;14.07;8.65;;;;;;;17.19;56.28;102495.50;5136912;27;20039;-62
2022/05/08 00:20:56;;;;;;;16.85;8.70;;;;;;;17.16;55.96;102501.16;5135922;27;20043;-62
2022/05/08 00:23:22;;;;;;;13.93;9.40;;;;;;;17.13;56.24;102507.69;5134864;27;20071;-62
2022/05/08 00:25:49;;;;;;;13.07;7.90;;;;;;;17.12;56.31;102505.94;5135738;27;20449;-61
2022/05/08 00:28:15;;;;;;;13.95;8.70;;;;;;;17.10;56.26;102505.19;5136670;27;20069;-63
2022/05/08 00:30:42;;;;;;;15.05;9.27;;;;;;;17.09;56.16;102510.69;5136849;27;20039;-62
2022/05/08 00:33:08;;;;;;;13.25;8.80;;;;;;;17.10;56.07;102507.91;5136852;27;20059;-62
2022/05/08 00:35:35;;;;;;;13.23;9.18;;;;;;;17.12;56.25;102500.50;5134105;27;20039;-62
2022/05/08 00:38:02;;;;;;;14.30;9.00;;;;;;;17.12;56.07;102496.94;5136446;27;20054;-62
2022/05/08 00:40:32;;;;;;;15.85;8.93;;;;;;;17.09;56.17;102506.16;5136251;27;20051;-62
2022/05/08 00:43:25;;;;;;;14.15;9.07;;;;;;;17.03;55.72;102505.72;5136442;27;20057;-61
2022/05/08 00:45:52;;;;;;;15.25;10.50;;;;;;;17.00;56.12;102505.94;5133788;27;20420;-63
2022/05/08 00:48:19;;;;;;;18.92;11.23;;;;;;;16.94;56.00;102509.09;5136104;27;20434;-62
2022/05/08 00:50:46;;;;;;;12.32;9.30;;;;;;;16.88;55.88;102507.69;5136448;27;20043;-63
2022/05/08 00:53:13;;;;;;;14.25;8.95;;;;;;;16.83;55.71;102510.72;5136132;27;20061;-62
2022/05/08 00:55:39;;;;;;;14.68;9.85;;;;;;;16.80;56.15;102505.50;5136137;27;20527;-62
2022/05/08 00:58:06;;;;;;;14.70;10.00;;;;;;;16.76;56.05;102512.13;5135123;27;20031;-62
2022/05/08 01:00:33;;;;;;;13.75;9.18;;;;;;;16.72;55.92;102505.19;5136160;27;20054;-62
2022/05/08 01:02:59;;;;;;;16.80;9.95;;;;;;;16.69;56.14;102502.69;5135878;27;20095;-62
2022/05/08 01:05:26;;;;;;;15.68;10.02;;;;;;;16.67;56.02;102509.22;5135651;27;20500;-62
2022/05/08 01:07:55;;;;;;;12.88;9.13;;;;;;;16.64;56.08;102501.25;5136029;27;20043;-62
2022/05/08 01:10:22;;;;;;;14.27;9.43;;;;;;;16.61;56.09;102505.03;5133779;27;20497;-62
2022/05/08 01:12:49;;;;;;;16.30;9.48;;;;;;;16.56;55.96;102509.06;5136087;27;20439;-62
2022/05/08 01:15:20;;;;;;;14.70;9.75;;;;;;;16.54;55.86;102514.59;5135879;27;20039;-62
2022/05/08 01:17:49;;;;;;;17.15;9.40;;;;;;;16.52;56.10;102503.84;5135753;27;20374;-62
2022/05/08 01:20:15;;;;;;;13.80;8.88;;;;;;;16.52;55.88;102517.41;5135541;27;20074;-62
2022/05/08 01:22:42;;;;;;;15.23;9.65;;;;;;;16.51;55.81;102521.09;5133766;27;20042;-62
2022/05/08 01:25:09;;;;;;;14.00;9.57;;;;;;;16.50;56.24;102515.78;5135523;27;20409;-62
2022/05/08 01:27:35;;;;;;;15.40;9.75;;;;;;;16.50;56.02;102516.66;5134128;27;20511;-62
2022/05/08 01:30:03;;;;;;;12.40;8.55;;;;;;;16.49;56.02;102522.19;5134776;27;20066;-62
2022/05/08 01:32:30;;;;;;;19.08;9.73;;;;;;;16.46;56.27;102509.69;5135248;27;20448;-63
2022/05/08 01:34:57;;;;;;;16.05;9.23;;;;;;;16.43;56.28;102518.03;5134618;27;20043;-62
2022/05/08 01:37:23;;;;;;;17.80;8.85;;;;;;;16.40;55.99;102517.41;5135274;27;20039;-62
2022/05/08 01:39:50;;;;;;;12.88;8.70;;;;;;;16.36;55.92;102524.88;5135345;27;20039;-61
2022/05/08 01:42:16;;;;;;;15.18;8.65;;;;;;;16.33;55.80;102527.75;5135260;27;20039;-61
2022/05/08 01:44:43;;;;;;;17.20;9.57;;;;;;;16.32;56.21;102519.72;5134066;27;20046;-62
2022/05/08 01:49:57;;;;;;;12.43;8.57;;;;;;;16.28;55.85;102524.50;5133620;27;20046;-63
2022/05/08 01:52:25;;;;;;;15.32;8.63;;;;;;;16.28;56.15;102529.03;5114392;28;20689;-62
2022/05/08 01:54:53;;;;;;;13.93;8.77;;;;;;;16.28;56.26;102529.03;5114422;28;20043;-62
2022/05/08 01:57:19;;;;;;;19.83;9.52;;;;;;;16.26;55.79;102537.28;5114146;28;20044;-63
2022/05/08 01:59:46;;;;;;;13.48;8.40;;;;;;;16.24;56.28;102539.22;5133203;27;20143;-62
2022/05/08 02:02:12;;;;;;;14.57;8.68;;;;;;;16.24;56.20;102533.81;5129728;27;20050;-62
2022/05/08 02:04:40;;;;;;;15.38;8.88;;;;;;;16.22;55.88;102541.19;5122187;27;20054;-62
2022/05/08 02:07:06;;;;;;;12.20;8.77;;;;;;;16.21;56.03;102540.31;5119292;27;20031;-61
2022/05/08 02:09:33;;;;;;;13.75;8.65;;;;;;;16.20;55.93;102544.00;5126607;27;20047;-62
2022/05/08 02:11:59;;;;;;;14.38;8.52;;;;;;;16.17;56.00;102543.34;5131320;27;20396;-62
2022/05/08 02:14:26;;;;;;;13.77;8.73;;;;;;;16.13;55.83;102542.69;5122166;27;20047;-62
2022/05/08 02:16:52;;;;;;;15.50;9.13;;;;;;;16.10;56.06;102547.44;5127252;27;20528;-63
2022/05/08 02:19:19;;;;;;;15.88;9.65;;;;;;;16.04;55.59;102548.72;5103134;28;20035;-61
2022/05/08 02:21:46;;;;;;;15.98;8.68;;;;;;;16.00;55.99;102549.91;5128566;27;20042;-62
2022/05/08 02:24:12;;;;;;;15.20;8.45;;;;;;;15.95;55.89;102551.16;5118099;27;20529;-61
2022/05/08 02:26:39;;;;;;;12.90;9.40;;;;;;;15.89;55.60;102553.31;5127631;27;20512;-62
2022/05/08 02:29:06;;;;;;;20.02;10.40;;;;;;;15.87;55.68;102552.56;5107305;28;20050;-62
2022/05/08 02:31:32;;;;;;;17.77;9.45;;;;;;;15.84;55.61;102550.03;5127579;27;20484;-62
2022/05/08 02:33:59;;;;;;;17.08;10.10;;;;;;;15.81;55.77;102549.38;5131190;27;20093;-61
2022/05/08 02:36:25;;;;;;;17.88;8.93;;;;;;;15.78;55.67;102549.59;5107348;28;20046;-61
2022/05/08 02:38:52;;;;;;;19.02;10.02;;;;;;;15.76;55.89;102557.81;5125593;27;20460;-61
2022/05/08 02:41:18;;;;;;;20.52;9.85;;;;;;;15.74;55.79;102551.63;5125470;28;20053;-61
2022/05/08 02:43:45;;;;;;;18.55;10.50;;;;;;;15.70;55.89;102549.22;5123985;28;20385;-62
2022/05/08 02:46:12;;;;;;;16.13;9.80;;;;;;;15.65;55.85;102557.66;5119914;28;20040;-62
2022/05/08 02:48:38;;;;;;;24.33;10.50;;;;;;;15.61;55.80;102556.09;5119784;28;20557;-62
2022/05/08 02:51:05;;;;;;;19.42;9.98;;;;;;;15.57;55.73;102558.13;5121650;28;20039;-62
2022/05/08 02:53:32;;;;;;;17.15;10.00;;;;;;;15.57;55.58;102560.81;5128129;28;20039;-62
2022/05/08 02:58:47;;;;;;;14.98;9.18;;;;;;;15.55;55.63;102556.44;5102880;28;20137;-62
2022/05/08 03:01:13;;;;;;;17.45;9.77;;;;;;;15.52;55.81;102553.94;5119135;28;20069;-61
2022/05/08 03:03:40;;;;;;;16.77;9.57;;;;;;;15.50;55.59;102547.75;5127604;28;20082;-62
2022/05/08 03:06:06;;;;;;;20.38;10.23;;;;;;;15.49;55.64;102546.00;5135245;28;20422;-61
2022/05/08 03:08:33;;;;;;;19.90;10.00;;;;;;;15.46;55.84;102547.06;5128018;28;20039;-61
2022/05/08 03:13:45;;;;;;;18.73;10.18;;;;;;;15.43;55.74;102549.13;5134078;28;20039;-61
2022/05/08 03:16:12;;;;;;;18.05;9.18;;;;;;;15.43;56.04;102546.41;5133968;28;20039;-63
2022/05/08 03:18:40;;;;;;;16.33;9.13;;;;;;;15.44;55.95;102557.13;5134245;27;20039;-62
2022/05/08 03:21:09;;;;;;;22.20;9.77;;;;;;;15.44;56.00;102543.59;5132522;27;20038;-62
2022/05/08 03:23:37;;;;;;;23.67;9.05;;;;;;;15.44;55.89;102553.56;5134072;28;20054;-62
2022/05/08 03:26:05;;;;;;;20.00;9.00;;;;;;;15.43;55.82;102547.28;5133905;28;20078;-62
2022/05/08 03:28:32;;;;;;;17.50;8.55;;;;;;;15.44;55.78;102553.56;5133836;28;20092;-62
2022/05/08 03:31:04;;;;;;;18.27;9.13;;;;;;;15.43;55.77;102549.13;5132948;28;20051;-62
2022/05/08 03:33:32;;;;;;;22.23;8.65;;;;;;;15.42;55.97;102550.09;5133433;27;20043;-61
2022/05/08 03:36:00;;;;;;;22.67;8.70;;;;;;;15.39;56.08;102551.16;5133769;27;20044;-61
2022/05/08 03:38:27;;;;;;;23.30;8.45;;;;;;;15.37;55.97;102558.50;5133786;28;20043;-62
2022/05/08 03:40:54;;;;;;;21.65;8.00;;;;;;;15.34;55.87;102568.66;5119769;27;20055;-61
2022/05/08 03:43:21;;;;;;;17.33;7.60;;;;;;;15.31;55.70;102561.59;5113171;28;20109;-62
2022/05/08 03:45:51;;;;;;;20.65;7.40;;;;;;;15.27;55.52;102568.16;5095568;28;20050;-62
2022/05/08 03:48:19;;;;;;;18.77;7.05;;;;;;;15.24;55.63;102563.81;5113150;28;20048;-62
2022/05/08 03:50:46;;;;;;;18.15;7.10;;;;;;;15.22;55.77;102557.63;5122937;28;20045;-61
2022/05/08 03:53:13;;;;;;;18.45;6.95;;;;;;;15.18;55.50;102564.22;5133058;28;20032;-61
2022/05/08 03:55:39;;;;;;;20.05;6.78;;;;;;;15.15;55.65;102564.41;5134848;27;20043;-62
2022/05/08 03:58:06;;;;;;;15.95;6.20;;;;;;;15.10;55.57;102558.41;5137261;27;20046;-61
2022/05/08 04:00:32;;;;;;;17.52;6.50;;;;;;;15.06;55.32;102564.13;5137178;27;20035;-62
2022/05/08 04:03:00;;;;;;;17.63;7.05;;;;;;;15.00;55.52;102559.09;5136055;27;20044;-61
2022/05/08 04:05:28;;;;;;;18.45;7.07;;;;;;;14.98;55.64;102559.19;5136995;27;20070;-62
2022/05/08 04:07:55;;;;;;;22.38;7.22;;;;;;;14.97;55.29;102570.09;5137230;27;20039;-62
2022/05/08 04:10:21;;;;;;;17.60;6.43;;;;;;;14.94;55.60;102565.75;5137191;27;20118;-62
2022/05/08 04:12:47;;;;;;;19.05;7.30;;;;;;;14.93;55.28;102566.72;5136996;27;20047;-62
2022/05/08 04:17:59;;;;;;;16.70;6.20;;;;;;;14.89;55.29;102574.16;5137287;27;20043;-62
2022/05/08 04:20:26;;;;;;;15.75;6.03;;;;;;;14.88;55.47;102574.25;5136819;27;20046;-63
2022/05/08 04:25:37;;;;;;;21.52;6.20;;;;;;;14.82;55.44;102569.19;5122007;27;20051;-63
2022/05/08 04:28:04;;;;;;;19.98;5.65;;;;;;;14.78;55.33;102584.72;5136541;27;20043;-63
2022/05/08 04:30:31;;;;;;;18.00;6.32;;;;;;;14.75;55.50;102581.34;5136803;27;20031;-63
2022/05/08 04:32:57;;;;;;;12.77;5.50;;;;;;;14.74;55.40;102579.59;5136503;27;20051;-63
2022/05/08 04:35:24;;;;;;;18.20;6.03;;;;;;;14.74;55.32;102585.88;5135635;27;20062;-63
2022/05/08 04:37:50;;;;;;;21.23;5.82;;;;;;;14.74;55.19;102590.41;5136329;27;20047;-63
2022/05/08 04:40:17;;;;;;;17.30;6.25;;;;;;;14.74;55.40;102585.00;5135279;27;20489;-62
2022/05/08 04:42:43;;;;;;;19.30;6.00;;;;;;;14.74;55.42;102590.41;5135457;27;20055;-62
2022/05/08 04:45:10;;;;;;;16.35;5.80;;;;;;;14.75;55.10;102589.47;5136337;27;20043;-62
2022/05/08 04:47:36;;;;;;;23.58;6.47;;;;;;;14.73;55.20;102597.66;5136319;27;20053;-61
2022/05/08 04:50:03;;;;;;;15.45;5.85;;;;;;;14.73;55.30;102594.09;5136540;27;20497;-61
2022/05/08 04:52:30;;;;;;;23.33;5.53;;;;;;;14.73;54.98;102597.66;5115921;27;20430;-61
2022/05/08 04:54:57;;;;;;;21.83;5.93;;;;;;;14.73;55.38;102602.22;5136215;27;20039;-62
2022/05/08 04:57:23;;;;;;;21.95;6.55;;;;;;;14.73;55.34;102600.38;5136091;27;20047;-62
2022/05/08 04:59:50;;;;;;;20.10;5.30;;;;;;;14.75;55.22;102595.75;5117678;27;20047;-61
2022/05/08 05:02:16;;;;;;;24.35;6.20;;;;;;;14.76;55.20;102594.78;5134870;27;20043;-62
2022/05/08 05:04:43;;;;;;;18.05;5.50;;;;;;;14.80;55.13;102601.75;5135256;27;20046;-62
2022/05/08 05:07:09;;;;;;;14.68;5.35;;;;;;;14.83;55.01;102611.50;5135567;27;20050;-62
2022/05/08 05:09:36;;;;;;;22.98;5.93;;;;;;;14.83;55.25;102611.50;5136071;27;20066;-62
2022/05/08 05:12:03;;;;;;;19.75;5.45;;;;;;;14.85;55.03;102610.44;5135964;27;20047;-63
2022/05/08 05:14:31;;;;;;;16.65;6.30;;;;;;;14.86;55.09;102617.63;5116171;27;20047;-63
2022/05/08 05:17:00;;;;;;;15.20;4.90;;;;;;;14.89;54.81;102621.97;5135976;27;20054;-62
2022/05/08 05:19:27;;;;;;;18.90;5.53;;;;;;;14.94;54.85;102620.72;5135660;27;20046;-63
2022/05/08 05:21:54;;;;;;;19.83;5.50;;;;;;;14.96;54.89;102628.75;5117383;27;20047;-63
2022/05/08 05:24:21;;;;;;;19.35;5.18;;;;;;;14.97;54.56;102625.09;5135575;27;20039;-63
2022/05/08 05:26:47;;;;;;;15.18;5.30;;;;;;;14.98;54.63;102632.25;5133945;27;20035;-62
2022/05/08 05:29:16;;;;;;;15.57;5.65;;;;;;;15.00;54.47;102626.72;5135638;27;20515;-62
2022/05/08 05:31:43;;;;;;;19.65;5.32;;;;;;;15.00;54.72;102633.00;5134492;27;20481;-62
2022/05/08 05:34:10;;;;;;;19.73;5.72;;;;;;;15.00;54.19;102640.25;5132760;27;20072;-62
2022/05/08 05:36:36;;;;;;;17.42;5.30;;;;;;;14.98;54.02;102634.94;5132892;27;20400;-62
2022/05/08 05:39:03;;;;;;;14.80;5.00;;;;;;;14.97;54.18;102644.03;5135490;27;20043;-62
2022/05/08 05:41:29;;;;;;;16.42;4.55;;;;;;;14.97;54.29;102635.91;5135552;27;20051;-62
2022/05/08 05:43:57;;;;;;;16.25;4.93;;;;;;;14.99;53.95;102661.03;5133868;27;20036;-62
2022/05/08 05:49:09;;;;;;;22.05;5.65;;;;;;;15.01;53.88;102655.53;5122085;27;20044;-62
2022/05/08 05:51:35;;;;;;;14.55;4.57;;;;;;;15.05;54.12;102663.38;5135335;27;20039;-62
2022/05/08 05:54:02;;;;;;;15.20;5.03;;;;;;;15.07;53.90;102658.72;5133493;27;20046;-62
2022/05/08 05:56:29;;;;;;;18.88;5.32;;;;;;;15.08;54.12;102671.28;5135063;27;20046;-62
2022/05/08 05:58:55;;;;;;;18.25;4.78;;;;;;;15.09;53.67;102662.22;5134911;27;20507;-62
2022/05/08 06:01:22;;;;;;;19.35;4.75;;;;;;;15.11;53.82;102665.69;5134096;27;20043;-62
2022/05/08 06:03:48;;;;;;;19.20;5.00;;;;;;;15.14;53.68;102660.09;5135199;27;20043;-62
2022/05/08 06:06:15;;;;;;;17.55;5.35;;;;;;;15.15;53.63;102664.53;5134694;27;20515;-63
2022/05/08 06:08:41;;;;;;;23.52;5.38;;;;;;;15.18;53.81;102664.34;5134913;27;20054;-62
2022/05/08 06:11:08;;;;;;;18.52;5.47;;;;;;;15.20;53.52;102667.84;5135173;27;20031;-62
2022/05/08 06:13:34;;;;;;;23.40;7.07;;;;;;;15.21;53.51;102672.28;5121975;27;20047;-62
2022/05/08 06:16:05;;;;;;;15.60;5.90;;;;;;;15.24;53.47;102676.63;5134840;27;20039;-62
2022/05/08 06:18:32;;;;;;;13.77;5.18;;;;;;;15.26;53.48;102678.28;5134034;27;20043;-61
2022/05/08 06:20:58;;;;;;;18.33;5.53;;;;;;;15.26;53.69;102677.41;5134829;27;20039;-62
2022/05/08 06:23:25;;;;;;;18.45;4.65;;;;;;;15.30;53.56;102678.97;5134677;27;20039;-62
2022/05/08 06:25:52;;;;;;;16.13;4.78;;;;;;;15.37;53.58;102680.31;5100504;27;20093;-62
2022/05/08 06:28:23;;;;;;;19.45;6.00;;;;;;;15.45;53.59;102679.84;5129849;27;20052;-62
2022/05/08 06:30:49;;;;;;;19.75;5.05;;;;;;;15.51;53.87;102691.16;5114241;28;20051;-62
2022/05/08 06:33:16;;;;;;;18.95;5.00;;;;;;;15.55;53.75;102694.56;5113030;28;20067;-62
2022/05/08 06:35:43;;;;;;;14.45;4.70;;;;;;;15.60;53.83;102687.03;5113667;28;20401;-64
2022/05/08 06:38:10;;;;;;;16.33;4.80;;;;;;;15.63;53.50;102678.75;5133806;27;20031;-63
2022/05/08 06:40:37;;;;;;;16.13;4.35;;;;;;;15.63;52.94;102684.16;5134202;27;20104;-63
2022/05/08 06:43:05;;;;;;;14.63;4.43;;;;;;;15.65;52.95;102701.19;5134258;27;20031;-63
2022/05/08 06:45:31;;;;;;;15.18;5.15;;;;;;;15.69;53.11;102688.31;5118506;27;20063;-63
2022/05/08 06:48:04;;;;;;;22.45;4.85;;;;;;;15.75;52.99;102693.34;5096828;28;20101;-63
2022/05/08 06:50:31;;;;;;;12.07;4.43;;;;;;;15.79;53.06;102698.47;5134538;28;20120;-62
2022/05/08 06:52:57;;;;;;;11.75;4.10;;;;;;;15.84;52.71;102695.47;5134534;28;20046;-64
2022/05/08 06:55:24;;;;;;;16.05;4.63;;;;;;;15.91;52.84;102702.25;5133982;28;20142;-63
2022/05/08 06:57:51;;;;;;;20.25;5.30;;;;;;;15.99;52.56;102701.75;5128221;28;20062;-63
2022/05/08 07:03:07;;;;;;;15.93;4.68;;;;;;;16.16;52.48;102706.94;5134082;28;20039;-64
2022/05/08 07:05:40;;;;;;;14.38;4.40;;;;;;;16.24;52.24;102710.03;5133991;28;20075;-63
2022/05/08 07:08:07;;;;;;;17.23;4.93;;;;;;;16.31;52.31;102714.06;5122762;28;20086;-63
2022/05/08 07:10:33;;;;;;;15.75;4.38;;;;;;;16.35;51.92;102714.75;5113876;28;20042;-63
2022/05/08 07:13:00;;;;;;;14.50;4.80;;;;;;;16.38;51.61;102712.72;5113468;28;20051;-62
2022/05/08 07:15:26;;;;;;;13.18;3.75;;;;;;;16.41;51.41;102706.25;5115371;28;20055;-64
2022/05/08 07:18:13;;;;;;;14.88;4.20;;;;;;;16.48;51.41;102715.72;5113463;28;20047;-63
2022/05/08 07:20:39;;;;;;;17.70;4.63;;;;;;;16.49;51.62;102718.31;5113284;28;20473;-63
2022/05/08 07:23:06;;;;;;;16.30;4.57;;;;;;;16.53;51.42;102713.56;5113471;28;20482;-62
2022/05/08 07:25:32;;;;;;;16.77;4.57;;;;;;;16.56;51.13;102723.34;5113315;28;20481;-63
2022/05/08 07:27:59;;;;;;;19.30;4.72;;;;;;;16.58;51.20;102721.38;5113286;28;20031;-64
2022/05/08 07:30:25;;;;;;;17.48;5.15;;;;;;;16.61;50.92;102729.31;5116032;28;20054;-64
2022/05/08 07:32:52;;;;;;;14.23;4.15;;;;;;;16.62;51.01;102725.63;5130043;27;20104;-63
2022/05/08 07:38:05;;;;;;;20.27;4.80;;;;;;;16.69;50.94;102721.56;5129968;27;20047;-63
2022/05/08 07:40:32;;;;;;;16.42;5.25;;;;;;;16.73;50.83;102731.25;5137594;27;20039;-63
2022/05/08 07:42:58;;;;;;;12.57;4.70;;;;;;;16.75;50.73;102727.47;5137733;27;20066;-63
2022/05/08 07:45:26;;;;;;;19.38;4.40;;;;;;;16.79;50.63;102725.41;5137479;27;20035;-63
2022/05/08 07:47:58;;;;;;;13.82;5.05;;;;;;;16.90;50.60;102724.69;5136929;27;20485;-64
2022/05/08 07:50:24;;;;;;;18.92;4.43;;;;;;;16.99;50.42;102729.47;5137403;27;20039;-63
2022/05/08 07:52:51;;;;;;;15.77;5.22;;;;;;;17.06;50.13;102730.81;5135708;27;20039;-64
2022/05/08 07:55:17;;;;;;;16.58;5.03;;;;;;;17.15;50.19;102732.91;5136992;27;20427;-62
2022/05/08 07:57:44;;;;;;;11.20;4.07;;;;;;;17.22;49.79;102736.06;5136934;27;20047;-62
2022/05/08 08:00:11;;;;;;;17.25;4.55;;;;;;;17.31;49.61;102728.16;5136012;27;20039;-63
2022/05/08 08:02:40;;;;;;;13.38;5.68;;;;;;;17.45;49.80;102743.47;5137404;27;20043;-63
2022/05/08 08:05:08;;;;;;;17.63;4.38;;;;;;;17.57;49.58;102729.03;5136844;27;20092;-62
2022/05/08 08:07:36;;;;;;;12.70;4.22;;;;;;;17.69;49.49;102727.34;5136785;27;20051;-63
2022/05/08 08:10:04;;;;;;;17.20;4.80;;;;;;;17.79;49.29;102740.16;5135976;27;20046;-63
2022/05/08 08:12:31;;;;;;;17.88;5.03;;;;;;;17.86;49.32;102726.16;5137054;27;20133;-62
2022/05/08 08:14:59;;;;;;;12.20;3.83;;;;;;;17.93;48.69;102731.03;5136864;27;20043;-63
2022/05/08 08:17:27;;;;;;;14.32;3.90;;;;;;;18.02;48.12;102726.78;5136634;27;20507;-62
2022/05/08 08:19:55;;;;;;;15.45;4.07;;;;;;;18.08;48.42;102727.19;5136775;27;20488;-63
2022/05/08 08:22:22;;;;;;;18.60;3.88;;;;;;;18.13;47.88;102736.88;5136624;27;20492;-63
2022/05/08 08:24:49;;;;;;;12.77;3.67;;;;;;;18.17;48.16;102741.97;5136264;27;20370;-63
2022/05/08 08:27:16;;;;;;;10.82;3.70;;;;;;;18.23;47.67;102743.38;5134439;27;20044;-65
2022/05/08 08:29:43;;;;;;;14.75;3.78;;;;;;;18.27;47.63;102739.44;5134668;27;20058;-64
2022/05/08 08:32:09;;;;;;;17.13;4.95;;;;;;;18.34;47.93;102746.16;5136357;27;20039;-64
2022/05/08 08:34:36;;;;;;;17.17;4.07;;;;;;;18.45;47.65;102739.94;5136208;27;20035;-64
2022/05/08 08:37:03;;;;;;;12.43;3.88;;;;;;;18.56;47.38;102740.00;5136266;27;20489;-64
2022/05/08 08:39:29;;;;;;;15.05;4.00;;;;;;;18.66;47.01;102743.84;5135094;27;20035;-64
2022/05/08 08:42:22;;;;;;;12.07;4.00;;;;;;;18.79;47.05;102739.19;5134554;27;20047;-65
2022/05/08 08:47:49;;;;;;;12.10;4.20;;;;;;;19.07;46.30;102742.53;5134019;27;20493;-64
2022/05/08 08:50:17;;;;;;;14.25;3.97;;;;;;;19.22;46.13;102742.22;5136397;27;20046;-64
2022/05/08 08:52:45;;;;;;;8.25;3.33;;;;;;;19.38;46.14;102741.03;5136431;27;20047;-64
2022/05/08 08:55:12;;;;;;;16.15;3.80;;;;;;;19.47;45.74;102738.47;5135993;27;20047;-64
2022/05/08 08:57:39;;;;;;;10.60;4.10;;;;;;;19.60;45.75;102741.13;5136016;27;20058;-64
2022/05/08 09:00:07;;;;;;;11.55;3.50;;;;;;;19.73;45.57;102735.56;5116996;27;20043;-63
2022/05/08 09:02:34;;;;;;;10.82;3.38;;;;;;;19.84;45.03;102735.56;5117957;27;20039;-64
2022/05/08 09:05:07;;;;;;;12.70;3.63;;;;;;;19.95;44.92;102738.28;5134959;27;20406;-64
2022/05/08 09:07:33;;;;;;;16.00;4.20;;;;;;;20.08;45.06;102735.47;5134843;27;20055;-64
2022/05/08 09:10:06;;;;;;;15.07;3.50;;;;;;;20.19;44.51;102739.06;5135873;27;20481;-64
2022/05/08 09:12:33;;;;;;;11.15;3.70;;;;;;;20.25;44.26;102735.81;5136091;27;20104;-64
2022/05/08 09:14:59;;;;;;;13.02;3.17;;;;;;;20.30;43.90;102741.75;5135943;27;20039;-64
2022/05/08 09:17:43;;;;;;;10.07;3.30;;;;;;;20.36;43.54;102742.25;5135660;27;20043;-64
2022/05/08 09:20:33;;;;;;;12.27;3.67;;;;;;;20.48;43.55;102733.94;5130278;27;20050;-64
2022/05/08 09:22:59;;;;;;;8.50;3.63;;;;;;;20.60;43.82;102738.38;5135492;27;20051;-61
2022/05/08 09:25:44;;;;;;;12.98;4.07;;;;;;;20.67;43.33;102744.19;5135495;27;20118;-63
2022/05/08 09:28:40;;;;;;;9.25;3.50;;;;;;;20.74;43.05;102742.69;5125276;27;20099;-64
2022/05/08 09:31:08;;;;;;;13.13;3.80;;;;;;;20.81;43.00;102737.59;5135371;27;20527;-63
2022/05/08 09:33:37;;;;;;;11.40;3.75;;;;;;;20.91;42.93;102727.63;5099783;27;20524;-63
2022/05/08 09:36:05;;;;;;;10.48;3.47;;;;;;;21.04;43.01;102735.63;5135325;27;20043;-62
2022/05/08 09:38:51;;;;;;;11.02;4.25;;;;;;;21.19;42.70;102731.59;5116979;27;20512;-63
2022/05/08 09:41:26;;;;;;;10.38;4.00;;;;;;;21.33;42.31;102739.50;5133647;27;20046;-63
2022/05/08 09:43:54;;;;;;;10.63;3.83;;;;;;;21.38;42.26;102734.50;5135166;27;20446;-63
2022/05/08 09:46:22;;;;;;;15.88;4.57;;;;;;;21.41;41.83;102736.09;5133892;27;20071;-63
2022/05/08 09:48:48;;;;;;;11.38;3.70;;;;;;;21.47;41.83;102727.34;5135210;27;20043;-63
2022/05/08 09:51:16;;;;;;;10.23;3.70;;;;;;;21.50;41.08;102732.53;5134386;27;20043;-62
2022/05/08 09:53:44;;;;;;;7.22;2.80;;;;;;;21.53;41.23;102727.69;5115717;27;20039;-64
2022/05/08 09:56:12;;;;;;;9.60;3.28;;;;;;;21.60;40.81;102725.31;5135278;27;20051;-62
2022/05/08 09:58:40;;;;;;;9.15;3.65;;;;;;;21.63;40.80;102726.91;5134965;27;20078;-64
2022/05/08 10:01:08;;;;;;;11.43;3.78;;;;;;;21.66;40.36;102729.34;5135269;27;20054;-63
2022/05/08 10:03:35;;;;;;;10.88;3.78;;;;;;;21.71;40.76;102727.09;5133679;27;20211;-63
2022/05/08 10:06:03;;;;;;;10.07;3.10;;;;;;;21.78;40.64;102722.81;5134850;27;20067;-61
2022/05/08 10:08:34;;;;;;;12.93;3.55;;;;;;;21.89;40.54;102728.19;5134718;27;20553;-62
2022/05/08 10:14:01;;;;;;;10.35;3.63;;;;;;;22.20;40.43;102718.97;5133940;27;20496;-63
2022/05/08 10:16:49;;;;;;;9.48;3.85;;;;;;;22.33;39.74;102726.09;5134792;27;20046;-63
2022/05/08 10:19:21;;;;;;;10.85;3.50;;;;;;;22.38;39.67;102721.91;5134751;27;20046;-62
2022/05/08 10:21:57;;;;;;;10.85;3.70;;;;;;;22.42;39.40;102711.56;5133836;27;20134;-62
2022/05/08 10:24:27;;;;;;;;;;;;;;;22.45;39.45;102719.50;5135206;27;20062;-62
2022/05/08 10:27:32;;;;;;;9.48;3.33;;;;;;;22.48;39.44;102716.47;5133400;27;19920;-62
2022/05/08 10:29:59;;;;;;;8.80;3.47;;;;;;;22.49;39.44;102707.25;5121490;27;20039;-62
2022/05/08 10:32:28;;;;;;;11.65;3.70;;;;;;;22.49;38.90;102707.25;5134658;27;20055;-62
2022/05/08 10:35:15;;;;;;;12.02;3.55;;;;;;;22.53;38.36;102705.94;5133680;27;20039;-62
2022/05/08 10:37:52;;;;;;;10.63;3.42;;;;;;;22.65;38.74;102710.28;5112546;28;20114;-63
2022/05/08 10:40:22;;;;;;;12.05;4.35;;;;;;;22.80;38.73;102711.63;5113787;27;20059;-63
2022/05/08 10:42:55;;;;;;;16.55;4.95;;;;;;;22.87;38.71;102705.56;5113764;28;20047;-62
2022/05/08 10:45:36;;;;;;;8.43;3.13;;;;;;;22.93;38.53;102702.25;5112404;28;20035;-62
2022/05/08 10:48:07;;;;;;;8.05;3.75;;;;;;;22.97;38.19;102700.94;5112845;28;20047;-63
2022/05/08 10:50:35;;;;;;;7.10;3.63;;;;;;;23.01;38.34;102696.91;5113709;28;20039;-64
2022/05/08 10:53:02;;;;;;;13.05;3.20;;;;;;;23.03;38.08;102694.88;5113878;28;20046;-63
2022/05/08 10:55:29;;;;;;;10.48;3.38;;;;;;;23.10;37.89;102696.06;5113604;28;20401;-62
2022/05/08 10:57:56;;;;;;;11.43;3.33;;;;;;;23.17;37.78;102688.13;5113943;28;20122;-61
2022/05/08 11:00:30;;;;;;;8.15;3.72;;;;;;;23.19;37.53;102684.22;5113994;28;20040;-62
2022/05/08 11:03:00;;;;;;;9.43;3.65;;;;;;;23.22;37.59;102685.81;5113947;28;20055;-62
2022/05/08 11:05:33;;;;;;;11.38;3.70;;;;;;;23.32;37.68;102682.03;5115050;28;20048;-62
2022/05/08 11:08:02;;;;;;;12.45;3.53;;;;;;;23.35;37.05;102683.63;5119503;27;20481;-61
2022/05/08 11:10:39;;;;;;;7.50;3.42;;;;;;;23.41;37.09;102688.50;5138473;27;20039;-63
2022/05/08 11:13:10;;;;;;;10.30;3.42;;;;;;;23.52;36.91;102690.22;5138149;27;20393;-61
2022/05/08 11:15:43;;;;;;;9.45;3.38;;;;;;;23.64;37.28;102686.31;5137945;27;20039;-61
2022/05/08 11:18:22;;;;;;;7.30;3.03;;;;;;;23.76;37.16;102685.97;5138322;27;20122;-61
2022/05/08 11:20:53;;;;;;;9.65;3.40;;;;;;;23.87;37.11;102686.81;5137724;27;20035;-62
2022/05/08 11:23:21;;;;;;;7.60;3.30;;;;;;;23.96;36.74;102689.50;5117552;28;20134;-61
2022/05/08 11:25:50;;;;;;;8.65;3.25;;;;;;;23.98;36.44;102682.00;5120595;27;20481;-62
2022/05/08 11:28:20;;;;;;;8.50;3.20;;;;;;;24.01;36.24;102681.69;5137702;27;20084;-62
2022/05/08 11:30:47;;;;;;;6.70;3.30;;;;;;;24.05;36.01;102682.25;5134586;27;20039;-61
2022/05/08 11:36:06;;;;;;;10.35;3.47;;;;;;;24.25;36.29;102680.25;5135475;27;20039;-62
2022/05/08 11:38:53;;;;;;;8.40;3.60;;;;;;;24.30;36.00;102676.06;5134622;27;20047;-62
2022/05/08 11:41:26;;;;;;;7.85;3.08;;;;;;;24.34;35.91;102666.47;5134722;27;20122;-61
2022/05/08 11:43:54;;;;;;;7.38;3.25;;;;;;;24.34;35.44;102666.47;5134357;27;20084;-62
2022/05/08 11:46:57;;;;;;;10.73;3.63;;;;;;;24.36;35.36;102669.94;5134030;27;20038;-63
2022/05/08 11:49:25;;;;;;;9.18;3.05;;;;;;;24.43;35.12;102666.56;5056479;28;20040;-62
2022/05/08 11:51:54;;;;;;;6.60;3.00;;;;;;;24.47;34.83;102660.59;5116892;27;20051;-62
2022/05/08 11:54:30;;;;;;;11.30;2.80;;;;;;;24.48;34.71;102662.34;5134917;27;20511;-62